Time;durP1;ratioP1;P1;durP2;ratioP2;P2;SDS_P1;SDS_P2;PMS_P1;PMS_P2;Temp;Humidity;BMP_temperature;BMP_pressure;BME280_temperature;BME280_humidity;BME280_pressure;Samples;Min_cycle;Max_cycle;Signal;HPM_P1;HPM_P2
2022/08/13 00:01:15;;;;;;;4.63;0.80;;;;;;;22.43;35.31;101651.81;4958928;28;97627;-48
2022/08/13 00:03:42;;;;;;;0.73;0.70;;;;;;;22.37;35.24;101649.16;4961940;28;97637;-48
2022/08/13 00:06:08;;;;;;;0.83;0.83;;;;;;;22.31;35.22;101651.38;4956598;28;97171;-46
2022/08/13 00:08:35;;;;;;;0.73;0.73;;;;;;;22.25;35.32;101647.22;4959149;28;97014;-48
2022/08/13 00:11:04;;;;;;;2.00;0.73;;;;;;;22.20;35.37;101651.66;4957606;28;97586;-50
2022/08/13 00:13:29;;;;;;;0.80;0.80;;;;;;;22.17;35.57;101644.34;4959549;28;97266;-47
2022/08/13 00:15:55;;;;;;;0.93;0.93;;;;;;;22.14;35.48;101642.66;4957876;28;96961;-52
2022/08/13 00:18:22;;;;;;;0.70;0.60;;;;;;;22.08;35.52;101641.31;4958067;28;97104;-48
2022/08/13 00:20:54;;;;;;;1.23;0.80;;;;;;;22.05;36.20;101653.59;4959230;28;97571;-48
2022/08/13 00:23:21;;;;;;;0.70;0.70;;;;;;;22.01;35.68;101651.16;4959444;28;97287;-53
2022/08/13 00:25:54;;;;;;;1.67;0.80;;;;;;;21.96;35.72;101652.03;4961689;28;97333;-48
2022/08/13 00:28:22;;;;;;;0.83;0.83;;;;;;;21.91;35.88;101643.78;4947796;28;97169;-47
2022/08/13 00:30:48;;;;;;;0.80;0.80;;;;;;;21.86;36.03;101647.47;4954481;28;97378;-48
2022/08/13 00:33:19;;;;;;;1.00;0.93;;;;;;;21.82;36.40;101653.38;4954766;28;97204;-47
2022/08/13 00:35:48;;;;;;;0.90;0.90;;;;;;;21.78;36.26;101641.75;4956578;28;97039;-47
2022/08/13 00:38:16;;;;;;;0.70;0.70;;;;;;;21.76;36.12;101641.56;4952135;28;97134;-47
2022/08/13 00:40:43;;;;;;;0.83;0.77;;;;;;;21.70;36.23;101635.34;4951670;28;97794;-47
2022/08/13 00:43:09;;;;;;;0.90;0.90;;;;;;;21.69;36.21;101644.31;4956169;28;97024;-48
2022/08/13 00:45:34;;;;;;;0.90;0.90;;;;;;;21.61;36.25;101633.03;4961464;28;96935;-46
2022/08/13 00:50:44;;;;;;;0.80;0.80;;;;;;;21.48;36.48;101628.25;4962913;28;101741;-47
2022/08/13 00:53:17;;;;;;;2.00;1.00;;;;;;;21.47;37.08;101628.78;4961707;28;97691;-47
2022/08/13 00:55:45;;;;;;;0.90;0.80;;;;;;;21.42;36.82;101627.63;4960942;28;97380;-47
2022/08/13 00:58:11;;;;;;;1.13;0.90;;;;;;;21.38;36.73;101615.25;4961009;28;97082;-46
2022/08/13 01:00:36;;;;;;;1.17;1.00;;;;;;;21.34;36.73;101617.66;4958858;28;98751;-47
2022/08/13 01:03:03;;;;;;;1.20;0.80;;;;;;;21.28;36.77;101620.56;4948319;28;98508;-47
2022/08/13 01:05:28;;;;;;;2.07;1.10;;;;;;;21.19;36.88;101615.41;4957714;28;96849;-47
2022/08/13 01:07:55;;;;;;;1.60;0.97;;;;;;;21.11;36.88;101625.78;4963059;28;97236;-47
2022/08/13 01:10:20;;;;;;;0.87;0.87;;;;;;;21.00;37.14;101625.25;4955957;28;97643;-48
2022/08/13 01:12:50;;;;;;;1.13;1.13;;;;;;;20.86;37.23;101622.47;4959650;28;97884;-47
2022/08/13 01:15:16;;;;;;;1.30;1.20;;;;;;;20.82;37.29;101627.66;4955350;28;97219;-48
2022/08/13 01:17:45;;;;;;;0.90;0.90;;;;;;;20.81;37.63;101623.38;4960706;28;97245;-47
2022/08/13 01:20:21;;;;;;;1.87;1.00;;;;;;;20.81;37.92;101626.16;4957143;28;97175;-47
2022/08/13 01:22:52;;;;;;;1.00;0.90;;;;;;;20.80;38.11;101626.69;4955419;28;97190;-48
2022/08/13 01:25:21;;;;;;;0.83;0.83;;;;;;;20.81;37.71;101628.97;4957893;28;97123;-47
2022/08/13 01:27:52;;;;;;;0.83;0.80;;;;;;;20.79;38.15;101636.38;4954498;28;96930;-50
2022/08/13 01:30:20;;;;;;;1.17;1.07;;;;;;;20.76;37.80;101624.22;4960416;28;97388;-48
2022/08/13 01:32:46;;;;;;;1.67;0.90;;;;;;;20.72;37.78;101626.59;4957196;28;101513;-47
2022/08/13 01:35:12;;;;;;;1.10;0.90;;;;;;;20.69;37.76;101630.47;4959001;28;97261;-49
2022/08/13 01:37:38;;;;;;;0.70;0.70;;;;;;;20.67;37.84;101629.50;4958042;28;97189;-49
2022/08/13 01:40:06;;;;;;;1.13;1.03;;;;;;;20.61;37.95;101635.22;4955080;28;97230;-48
2022/08/13 01:42:43;;;;;;;0.90;0.90;;;;;;;20.52;38.97;101632.84;4957355;28;96927;-48
2022/08/13 01:45:11;;;;;;;0.80;0.80;;;;;;;20.38;38.08;101653.69;4957822;28;97011;-48
2022/08/13 01:50:30;;;;;;;1.13;1.00;;;;;;;20.17;38.58;101652.78;4957514;28;96950;-48
2022/08/13 01:53:14;;;;;;;0.97;0.97;;;;;;;20.16;39.38;101648.47;4962615;28;98566;-50
2022/08/13 01:55:48;;;;;;;0.93;0.93;;;;;;;20.16;39.42;101640.09;4958014;28;97086;-52
2022/08/13 01:58:34;;;;;;;0.93;0.93;;;;;;;20.16;40.17;101645.69;4955717;28;97015;-47
2022/08/13 02:01:02;;;;;;;1.20;1.10;;;;;;;20.09;38.80;101654.72;4953041;28;98650;-48
2022/08/13 02:03:27;;;;;;;0.97;0.87;;;;;;;20.08;39.10;101642.78;4956612;28;96895;-50
2022/08/13 02:05:56;;;;;;;0.80;0.80;;;;;;;20.09;39.23;101641.47;4958461;28;97300;-48
2022/08/13 02:08:23;;;;;;;0.83;0.83;;;;;;;20.07;39.02;101644.06;4957052;28;96874;-48
2022/08/13 02:10:52;;;;;;;0.80;0.80;;;;;;;20.02;39.45;101650.53;4956024;28;98540;-48
2022/08/13 02:13:20;;;;;;;1.03;0.80;;;;;;;19.96;39.31;101640.72;4958010;28;98550;-47
2022/08/13 02:15:48;;;;;;;1.00;1.00;;;;;;;19.97;39.63;101648.56;4960527;28;97330;-47
2022/08/13 02:18:17;;;;;;;0.90;0.90;;;;;;;19.97;39.80;101654.16;4955166;28;96972;-48
2022/08/13 02:20:44;;;;;;;1.00;1.00;;;;;;;19.97;39.83;101651.34;4957857;28;97533;-48
2022/08/13 02:23:14;;;;;;;0.90;0.90;;;;;;;19.98;39.71;101654.91;4956957;28;97106;-48
2022/08/13 02:25:41;;;;;;;1.13;1.10;;;;;;;19.95;39.90;101659.53;4960504;28;96765;-47
2022/08/13 02:28:06;;;;;;;0.80;0.80;;;;;;;19.93;39.96;101650.16;4959321;28;97350;-48
2022/08/13 02:30:32;;;;;;;0.97;0.97;;;;;;;19.91;40.10;101647.16;4956318;28;97467;-48
2022/08/13 02:33:00;;;;;;;1.30;1.20;;;;;;;19.90;40.09;101651.97;4956310;28;96834;-48
2022/08/13 02:35:27;;;;;;;1.87;1.20;;;;;;;19.89;40.13;101655.31;4957062;28;97257;-48
2022/08/13 02:37:54;;;;;;;0.80;0.67;;;;;;;19.86;40.19;101654.34;4961993;28;97405;-48
2022/08/13 02:43:05;;;;;;;2.87;1.00;;;;;;;19.81;40.20;101649.59;4955290;28;97294;-49
2022/08/13 02:45:31;;;;;;;0.90;0.90;;;;;;;19.78;40.30;101649.91;4954678;28;97635;-47
2022/08/13 02:47:57;;;;;;;2.60;1.30;;;;;;;19.72;40.55;101646.47;4956993;28;97013;-48
2022/08/13 02:50:24;;;;;;;1.00;0.93;;;;;;;19.70;40.69;101643.44;4958457;28;97405;-49
2022/08/13 02:52:51;;;;;;;3.33;1.00;;;;;;;19.67;40.59;101642.47;4956997;28;97311;-51
2022/08/13 02:55:22;;;;;;;1.30;1.20;;;;;;;19.66;41.38;101648.59;4956217;28;97776;-49
2022/08/13 02:57:49;;;;;;;1.20;1.10;;;;;;;19.58;40.55;101651.25;4957891;28;96765;-48
2022/08/13 03:00:18;;;;;;;0.97;0.93;;;;;;;19.51;41.00;101649.06;4953870;28;98194;-49
2022/08/13 03:02:44;;;;;;;1.83;1.00;;;;;;;19.48;40.95;101650.13;4956315;28;97088;-48
2022/08/13 03:05:12;;;;;;;1.00;0.90;;;;;;;19.44;41.15;101644.84;4959278;28;97319;-48
2022/08/13 03:07:41;;;;;;;2.17;1.20;;;;;;;19.45;41.31;101640.03;4956789;28;97115;-49
2022/08/13 03:10:11;;;;;;;1.10;1.00;;;;;;;19.43;41.00;101648.19;4956799;28;97925;-48
2022/08/13 03:12:41;;;;;;;1.17;1.07;;;;;;;19.37;41.29;101639.13;4958598;28;97163;-48
2022/08/13 03:15:10;;;;;;;1.40;1.00;;;;;;;19.34;41.36;101635.38;4955460;28;97097;-47
2022/08/13 03:17:37;;;;;;;1.10;1.00;;;;;;;19.31;41.39;101646.78;4955502;28;97380;-47
2022/08/13 03:20:05;;;;;;;1.53;0.80;;;;;;;19.28;41.61;101640.25;4953490;28;98570;-49
2022/08/13 03:22:30;;;;;;;0.93;0.90;;;;;;;19.25;41.69;101643.31;4956408;28;97238;-49
2022/08/13 03:24:56;;;;;;;1.50;1.30;;;;;;;19.24;41.62;101647.41;4958058;28;97524;-47
2022/08/13 03:27:21;;;;;;;1.77;0.97;;;;;;;19.21;41.68;101642.88;4959141;28;97179;-48
2022/08/13 03:29:49;;;;;;;1.77;0.90;;;;;;;19.18;41.77;101639.09;4956324;28;97091;-52
2022/08/13 03:32:14;;;;;;;1.20;1.13;;;;;;;19.13;41.85;101642.00;4950566;28;97512;-48
2022/08/13 03:34:40;;;;;;;1.63;1.53;;;;;;;19.10;41.93;101643.78;4954872;28;97650;-48
2022/08/13 03:37:06;;;;;;;1.50;1.40;;;;;;;19.07;42.15;101644.06;4956785;28;97453;-47
2022/08/13 03:39:32;;;;;;;1.67;1.00;;;;;;;19.04;42.18;101645.91;4957420;28;97536;-49
2022/08/13 03:42:00;;;;;;;1.30;0.93;;;;;;;18.97;42.36;101634.59;4959619;28;96859;-48
2022/08/13 03:44:25;;;;;;;1.27;1.27;;;;;;;18.92;42.33;101638.19;4953507;28;97401;-49
2022/08/13 03:46:50;;;;;;;1.40;1.30;;;;;;;18.89;42.54;101631.66;4955381;28;97354;-47
2022/08/13 03:49:19;;;;;;;1.10;0.97;;;;;;;18.87;42.65;101631.41;4955674;28;97762;-49
2022/08/13 03:51:44;;;;;;;1.27;1.27;;;;;;;18.86;42.78;101635.50;4954873;28;100445;-48
2022/08/13 03:54:10;;;;;;;1.07;1.07;;;;;;;18.87;42.62;101636.25;4955247;28;97134;-47
2022/08/13 03:56:35;;;;;;;1.10;1.00;;;;;;;18.84;42.75;101634.50;4958268;28;96989;-47
2022/08/13 03:59:02;;;;;;;2.10;1.00;;;;;;;18.80;42.82;101629.25;4953061;28;97383;-49
2022/08/13 04:01:27;;;;;;;3.13;1.00;;;;;;;18.81;42.81;101633.53;4955124;28;97682;-48
2022/08/13 04:03:52;;;;;;;0.87;0.87;;;;;;;18.79;42.85;101619.34;4955747;28;97235;-48
2022/08/13 04:06:21;;;;;;;0.80;0.80;;;;;;;18.76;42.94;101623.22;4959133;28;96878;-47
2022/08/13 04:08:48;;;;;;;1.07;0.97;;;;;;;18.69;43.06;101616.19;4953648;28;97870;-47
2022/08/13 04:11:17;;;;;;;2.30;1.60;;;;;;;18.70;43.06;101616.94;4956404;28;97395;-48
2022/08/13 04:13:44;;;;;;;1.27;1.27;;;;;;;18.67;43.21;101621.50;4956445;28;96788;-48
2022/08/13 04:16:14;;;;;;;1.23;1.23;;;;;;;18.69;43.63;101621.00;4959339;28;97126;-48
2022/08/13 04:18:41;;;;;;;1.23;1.13;;;;;;;18.66;43.25;101613.69;4960197;28;101114;-47
2022/08/13 04:21:14;;;;;;;1.67;1.40;;;;;;;18.65;43.39;101615.72;4958892;28;98352;-48
2022/08/13 04:23:43;;;;;;;1.30;1.20;;;;;;;18.64;43.31;101613.47;4960537;28;96708;-48
2022/08/13 04:26:16;;;;;;;1.37;0.90;;;;;;;18.68;43.99;101625.06;4958876;28;97670;-48
2022/08/13 04:28:43;;;;;;;0.90;0.90;;;;;;;18.65;43.49;101620.56;4959314;28;97474;-48
2022/08/13 04:31:10;;;;;;;1.30;1.20;;;;;;;18.64;43.58;101624.59;4958746;28;97264;-48
2022/08/13 04:33:37;;;;;;;1.23;1.10;;;;;;;18.63;43.58;101625.91;4958575;28;97359;-48
2022/08/13 04:36:03;;;;;;;0.93;0.93;;;;;;;18.60;43.62;101626.94;4959521;28;97227;-48
2022/08/13 04:38:29;;;;;;;1.63;1.20;;;;;;;18.60;43.71;101619.34;4948821;28;98586;-48
2022/08/13 04:40:55;;;;;;;2.07;1.20;;;;;;;18.58;43.58;101621.13;4950890;28;97524;-48
2022/08/13 04:43:21;;;;;;;1.43;1.13;;;;;;;18.59;43.87;101617.81;4956585;28;97217;-48
2022/08/13 04:45:46;;;;;;;1.20;1.20;;;;;;;18.59;43.84;101622.63;4938584;28;97355;-48
2022/08/13 04:48:14;;;;;;;1.50;1.40;;;;;;;18.59;43.89;101622.63;4956598;28;97065;-48
2022/08/13 04:50:42;;;;;;;1.13;1.03;;;;;;;18.60;43.89;101619.34;4956795;28;98718;-48
2022/08/13 04:53:19;;;;;;;1.00;1.00;;;;;;;18.61;43.97;101620.06;4958948;28;97153;-48
2022/08/13 04:55:45;;;;;;;1.50;1.40;;;;;;;18.59;43.94;101615.03;4961967;28;97281;-48
2022/08/13 04:58:10;;;;;;;5.33;1.13;;;;;;;18.59;43.97;101617.81;4926721;28;97358;-48
2022/08/13 05:00:35;;;;;;;6.20;1.63;;;;;;;18.61;44.13;101622.84;4962488;28;98119;-48
2022/08/13 05:03:15;;;;;;;1.60;1.10;;;;;;;18.63;45.02;101617.53;4960449;28;97455;-48
2022/08/13 05:05:43;;;;;;;1.63;1.53;;;;;;;18.63;44.14;101618.28;4955779;28;97013;-48
2022/08/13 05:08:10;;;;;;;1.33;1.30;;;;;;;18.68;44.26;101625.06;4957156;28;98761;-48
2022/08/13 05:10:39;;;;;;;1.60;1.20;;;;;;;18.72;44.42;101619.94;4934249;28;97392;-48
2022/08/13 05:13:24;;;;;;;1.20;1.13;;;;;;;18.74;45.43;101625.75;4958090;28;97016;-48
2022/08/13 05:15:51;;;;;;;1.47;1.37;;;;;;;18.74;44.48;101619.44;4951776;28;97038;-48
2022/08/13 05:18:18;;;;;;;1.40;1.40;;;;;;;18.77;44.38;101626.72;4958443;28;97382;-48
2022/08/13 05:20:43;;;;;;;1.50;1.23;;;;;;;18.80;44.45;101626.44;4955108;28;96952;-48
2022/08/13 05:23:09;;;;;;;2.60;1.20;;;;;;;18.82;44.56;101615.53;4955819;28;97535;-47
2022/08/13 05:25:35;;;;;;;1.40;1.30;;;;;;;18.85;44.52;101622.09;4953176;28;97224;-48
2022/08/13 05:28:00;;;;;;;1.17;1.17;;;;;;;18.87;44.60;101620.25;4960764;28;97294;-48
2022/08/13 05:30:26;;;;;;;1.53;1.47;;;;;;;18.90;44.56;101629.59;4956552;28;97060;-47
2022/08/13 05:32:52;;;;;;;1.67;1.03;;;;;;;18.94;44.64;101625.25;4960698;28;97433;-49
2022/08/13 05:35:17;;;;;;;5.17;1.40;;;;;;;18.99;44.54;101621.63;4955168;28;96826;-48
2022/08/13 05:37:42;;;;;;;0.80;0.80;;;;;;;19.04;44.77;101629.19;4962154;28;98611;-49
2022/08/13 05:40:09;;;;;;;0.97;0.97;;;;;;;19.10;44.56;101627.06;4955294;28;97037;-48
2022/08/13 05:42:39;;;;;;;1.40;1.30;;;;;;;19.13;44.77;101628.78;4959971;28;97106;-48
2022/08/13 05:45:07;;;;;;;2.60;1.23;;;;;;;19.18;44.50;101627.94;4957768;28;97523;-48
2022/08/13 05:47:33;;;;;;;2.40;0.90;;;;;;;19.22;44.58;101628.41;4958929;28;98799;-47
2022/08/13 05:49:58;;;;;;;1.27;1.20;;;;;;;19.30;44.70;101623.72;4960288;28;97352;-48
2022/08/13 05:52:27;;;;;;;1.63;1.00;;;;;;;19.36;44.81;101621.63;4960905;28;97739;-52
2022/08/13 05:54:55;;;;;;;1.90;1.27;;;;;;;19.43;44.63;101621.03;4956156;28;96763;-48
2022/08/13 05:57:21;;;;;;;1.30;0.90;;;;;;;19.50;44.61;101624.47;4956776;28;96765;-48
2022/08/13 06:05:15;;;;;;;2.50;1.20;;;;;;;19.65;44.74;101611.53;4956911;28;96744;-47
2022/08/13 06:07:42;;;;;;;1.47;1.37;;;;;;;19.74;44.76;101613.19;4956969;28;97635;-48
2022/08/13 06:10:08;;;;;;;0.97;0.97;;;;;;;19.81;44.67;101615.34;4960031;28;97399;-48
2022/08/13 06:12:33;;;;;;;2.40;1.30;;;;;;;19.89;44.86;101613.41;4955082;28;97408;-48
2022/08/13 06:14:59;;;;;;;1.07;1.07;;;;;;;19.97;44.81;101614.28;4960159;28;96934;-48
2022/08/13 06:17:24;;;;;;;1.13;1.13;;;;;;;20.05;44.69;101610.31;4954290;28;97145;-48
2022/08/13 06:19:51;;;;;;;0.97;0.97;;;;;;;20.12;44.82;101598.50;4957438;28;96931;-48
2022/08/13 06:22:19;;;;;;;1.10;1.00;;;;;;;20.22;44.81;101607.25;4956146;28;97458;-48
2022/08/13 06:24:47;;;;;;;1.27;1.17;;;;;;;20.31;44.71;101604.03;4957309;28;97343;-48
2022/08/13 06:27:12;;;;;;;2.00;1.07;;;;;;;20.41;44.69;101613.50;4954492;28;97170;-48
2022/08/13 06:29:40;;;;;;;1.23;1.20;;;;;;;20.50;44.64;101612.31;4955579;28;97430;-48
2022/08/13 06:32:06;;;;;;;1.10;1.10;;;;;;;20.61;44.71;101617.69;4956267;28;97014;-48
2022/08/13 06:34:34;;;;;;;1.50;1.37;;;;;;;20.70;44.70;101617.25;4954852;28;97009;-48
2022/08/13 06:37:02;;;;;;;1.10;1.10;;;;;;;20.77;44.72;101608.19;4942204;28;100731;-48
2022/08/13 06:39:29;;;;;;;1.23;1.23;;;;;;;20.88;44.39;101617.09;4935890;28;97942;-48
2022/08/13 06:42:02;;;;;;;1.30;1.30;;;;;;;21.01;44.63;101618.38;4948161;28;97391;-48
2022/08/13 06:44:32;;;;;;;1.30;1.17;;;;;;;21.11;44.34;101625.78;4954076;28;97158;-48
2022/08/13 06:47:03;;;;;;;0.87;0.87;;;;;;;21.19;44.46;101621.00;4953747;28;97922;-48
2022/08/13 06:49:33;;;;;;;1.07;1.07;;;;;;;21.33;44.49;101625.28;4952339;28;97625;-48
2022/08/13 06:52:00;;;;;;;1.60;1.50;;;;;;;21.45;44.43;101626.50;4957701;28;97063;-48
2022/08/13 06:54:26;;;;;;;1.23;1.00;;;;;;;21.61;44.42;101619.00;4956296;28;97758;-48
2022/08/13 06:56:53;;;;;;;1.47;1.37;;;;;;;21.76;44.35;101621.19;4956393;28;97572;-48
2022/08/13 06:59:21;;;;;;;1.57;1.47;;;;;;;21.92;44.44;101615.22;4954017;28;101346;-48
2022/08/13 07:01:46;;;;;;;1.70;1.60;;;;;;;22.07;44.20;101618.13;4957524;28;96861;-48
2022/08/13 07:04:19;;;;;;;2.20;1.57;;;;;;;22.25;44.67;101622.75;4957057;28;103523;-48
2022/08/13 07:06:47;;;;;;;1.33;1.23;;;;;;;22.41;44.26;101620.75;4957254;28;96981;-48
2022/08/13 07:09:13;;;;;;;2.27;1.67;;;;;;;22.55;44.01;101616.53;4958965;28;97593;-48
2022/08/13 07:11:44;;;;;;;1.23;1.23;;;;;;;22.72;44.02;101619.66;4956180;28;97416;-48
2022/08/13 07:14:10;;;;;;;1.80;1.70;;;;;;;22.89;43.89;101633.19;4951636;28;97048;-48
2022/08/13 07:16:36;;;;;;;1.70;1.60;;;;;;;23.04;43.80;101628.38;4957644;28;96902;-48
2022/08/13 07:19:03;;;;;;;1.53;1.43;;;;;;;23.22;43.47;101623.75;4956482;28;98793;-48
2022/08/13 07:21:30;;;;;;;1.73;1.63;;;;;;;23.40;43.25;101622.69;4957021;28;97352;-48
2022/08/13 07:23:57;;;;;;;2.17;1.90;;;;;;;23.58;42.99;101623.66;4958273;28;97195;-49
2022/08/13 07:26:27;;;;;;;1.63;1.50;;;;;;;23.77;42.73;101624.78;4956653;28;97391;-48
2022/08/13 07:28:53;;;;;;;1.70;1.60;;;;;;;23.96;42.81;101632.09;4956670;28;97349;-49
2022/08/13 07:31:23;;;;;;;1.50;1.40;;;;;;;24.10;42.74;101625.00;4958200;28;97065;-48
2022/08/13 07:33:51;;;;;;;1.80;1.70;;;;;;;24.26;42.55;101629.28;4957004;28;97293;-48
2022/08/13 07:36:19;;;;;;;1.70;1.60;;;;;;;24.43;42.34;101627.38;4952822;28;97894;-49
2022/08/13 07:38:46;;;;;;;2.40;1.50;;;;;;;24.61;42.20;101619.06;4954033;28;97093;-48
2022/08/13 07:41:12;;;;;;;2.03;1.93;;;;;;;24.77;42.17;101621.28;4957393;28;96836;-48
2022/08/13 07:43:43;;;;;;;1.47;1.37;;;;;;;24.93;41.76;101622.72;4955440;28;97764;-49
2022/08/13 07:46:10;;;;;;;1.67;1.57;;;;;;;25.09;41.67;101621.34;4955879;28;97097;-48
2022/08/13 07:48:38;;;;;;;2.07;1.73;;;;;;;25.28;41.73;101618.78;4957173;28;97377;-48
2022/08/13 07:51:06;;;;;;;4.03;1.60;;;;;;;25.43;41.46;101623.59;4955367;28;97134;-48
2022/08/13 07:53:35;;;;;;;1.80;1.70;;;;;;;25.60;41.03;101631.38;4954689;28;96957;-48
2022/08/13 07:56:02;;;;;;;1.30;1.20;;;;;;;25.77;40.93;101620.91;4955515;28;97221;-48
2022/08/13 07:58:29;;;;;;;1.90;1.80;;;;;;;25.93;40.96;101629.94;4955079;28;98298;-49
2022/08/13 08:00:57;;;;;;;2.70;1.80;;;;;;;26.09;40.69;101625.72;4954163;28;97000;-49
2022/08/13 08:03:25;;;;;;;1.90;1.80;;;;;;;26.27;40.80;101627.22;4955649;28;97163;-49
2022/08/13 08:05:53;;;;;;;1.73;1.63;;;;;;;26.43;40.39;101622.19;4956234;28;97693;-48
2022/08/13 08:08:19;;;;;;;1.47;1.43;;;;;;;26.58;40.07;101622.72;4954253;28;100142;-48
2022/08/13 08:10:46;;;;;;;2.10;2.00;;;;;;;26.74;40.06;101621.25;4961165;28;97848;-48
2022/08/13 08:13:13;;;;;;;1.83;1.60;;;;;;;26.90;39.95;101621.06;4957316;28;97907;-49
2022/08/13 08:15:44;;;;;;;3.83;1.57;;;;;;;27.06;39.86;101628.00;4947202;28;97614;-49
2022/08/13 08:18:09;;;;;;;2.20;1.60;;;;;;;27.21;39.63;101622.91;4958227;28;97419;-49
2022/08/13 08:20:34;;;;;;;1.60;1.50;;;;;;;27.37;39.46;101631.91;4960046;28;97191;-53
2022/08/13 08:23:00;;;;;;;1.60;1.50;;;;;;;27.52;39.04;101639.44;4958831;28;98991;-48
2022/08/13 08:25:26;;;;;;;1.80;1.70;;;;;;;27.68;38.74;101632.94;4956580;28;98623;-49
2022/08/13 08:27:51;;;;;;;1.80;1.70;;;;;;;27.85;38.53;101630.00;4956649;28;97015;-49
2022/08/13 08:30:18;;;;;;;1.80;1.70;;;;;;;28.01;38.47;101627.69;4957237;28;97314;-49
2022/08/13 08:32:53;;;;;;;1.73;1.63;;;;;;;28.16;38.03;101635.91;4958070;28;98585;-48
2022/08/13 08:35:20;;;;;;;1.90;1.80;;;;;;;28.34;37.84;101628.81;4956724;28;100745;-49
2022/08/13 08:43:27;;;;;;;3.67;1.90;;;;;;;28.88;37.51;101632.06;4959106;28;96838;-48
2022/08/13 08:45:53;;;;;;;1.80;1.70;;;;;;;29.04;37.18;101636.09;4958404;28;101840;-48
2022/08/13 08:48:19;;;;;;;1.67;1.57;;;;;;;29.21;36.70;101629.50;4956161;28;96959;-48
2022/08/13 08:50:44;;;;;;;1.73;1.63;;;;;;;29.37;36.64;101622.13;4957097;28;96901;-48
2022/08/13 08:53:21;;;;;;;2.13;1.73;;;;;;;29.53;36.30;101624.00;4954744;28;97212;-48
2022/08/13 08:55:51;;;;;;;2.33;1.83;;;;;;;29.71;35.75;101635.13;4957512;28;97469;-48
2022/08/13 08:58:21;;;;;;;2.20;2.10;;;;;;;29.83;35.75;101630.31;4957316;28;96955;-49
2022/08/13 09:00:48;;;;;;;1.80;1.67;;;;;;;29.91;35.29;101625.19;4955814;28;97364;-49
2022/08/13 09:03:19;;;;;;;2.93;2.10;;;;;;;30.06;35.23;101627.63;4961336;28;97416;-49
2022/08/13 09:05:48;;;;;;;1.97;1.87;;;;;;;30.23;35.36;101628.09;4963325;28;96848;-50
2022/08/13 09:08:15;;;;;;;5.57;1.80;;;;;;;30.40;35.03;101623.53;4963715;28;97125;-47
2022/08/13 09:10:43;;;;;;;2.20;2.10;;;;;;;30.53;34.96;101626.56;4959945;28;97454;-49
2022/08/13 09:13:09;;;;;;;1.70;1.60;;;;;;;30.70;34.72;101619.81;4960866;28;97340;-48
2022/08/13 09:15:36;;;;;;;2.00;1.90;;;;;;;30.84;34.39;101612.22;4959481;28;97013;-49
2022/08/13 09:18:02;;;;;;;2.70;1.80;;;;;;;30.97;34.12;101618.06;4961781;28;97070;-49
2022/08/13 09:20:33;;;;;;;2.40;1.60;;;;;;;31.11;33.75;101615.38;4961708;28;96881;-49
2022/08/13 09:23:07;;;;;;;2.00;1.90;;;;;;;31.14;33.08;101607.72;4960231;28;97369;-49
2022/08/13 09:25:33;;;;;;;2.10;1.77;;;;;;;31.24;33.52;101609.09;4963936;28;101648;-50
2022/08/13 09:27:59;;;;;;;1.80;1.70;;;;;;;31.39;33.55;101605.75;4959894;28;97260;-49
2022/08/13 09:30:24;;;;;;;1.80;1.70;;;;;;;31.59;33.18;101600.59;4961175;28;97321;-48
2022/08/13 09:32:56;;;;;;;2.07;1.90;;;;;;;31.72;33.05;101602.81;4960017;28;97292;-49
2022/08/13 09:35:22;;;;;;;2.70;1.60;;;;;;;31.81;32.68;101594.16;4959323;28;97475;-49
2022/08/13 09:37:48;;;;;;;1.60;1.50;;;;;;;31.84;32.64;101592.16;4961366;28;97178;-50
2022/08/13 09:40:14;;;;;;;2.50;2.30;;;;;;;31.97;32.77;101599.34;4962840;28;97132;-49
2022/08/13 09:43:19;;;;;;;1.40;1.37;;;;;;;32.12;32.03;101591.00;4958415;28;97608;-49
2022/08/13 09:45:44;;;;;;;2.37;1.70;;;;;;;32.34;32.31;101597.25;4953278;28;103017;-48
2022/08/13 09:48:10;;;;;;;2.20;2.10;;;;;;;32.44;32.03;101590.00;4957260;28;97377;-49
2022/08/13 09:50:36;;;;;;;2.03;1.73;;;;;;;32.60;32.08;101592.31;4951691;28;98566;-49
2022/08/13 09:53:02;;;;;;;1.53;1.43;;;;;;;32.74;31.87;101584.56;4961240;28;97125;-49
2022/08/13 09:55:28;;;;;;;2.10;2.00;;;;;;;32.81;31.59;101580.69;4958640;28;97109;-50
2022/08/13 09:57:59;;;;;;;1.70;1.60;;;;;;;32.91;31.39;101576.28;4961300;28;97201;-49
2022/08/13 10:00:29;;;;;;;1.70;1.60;;;;;;;33.01;31.52;101581.81;4960903;28;97092;-48
2022/08/13 10:03:00;;;;;;;1.90;1.80;;;;;;;33.10;31.39;101580.88;4961991;28;97285;-48
2022/08/13 10:05:32;;;;;;;2.17;2.07;;;;;;;33.16;31.25;101569.78;4960029;28;97023;-48
2022/08/13 10:07:59;;;;;;;1.70;1.60;;;;;;;33.22;31.14;101575.84;4961027;28;97377;-48
2022/08/13 10:10:25;;;;;;;2.30;2.20;;;;;;;33.27;31.26;101571.09;4963003;28;96842;-49
2022/08/13 10:12:52;;;;;;;2.03;1.93;;;;;;;33.29;31.11;101562.66;4959923;28;100117;-49
2022/08/13 10:15:17;;;;;;;2.60;2.40;;;;;;;33.34;31.16;101559.34;4959618;28;97157;-49
2022/08/13 10:17:45;;;;;;;2.10;2.00;;;;;;;33.37;30.59;101558.09;4957886;28;97174;-49
2022/08/13 10:20:10;;;;;;;2.70;2.50;;;;;;;33.33;30.67;101565.72;4960517;28;96851;-49
2022/08/13 10:22:36;;;;;;;2.33;2.23;;;;;;;33.28;30.24;101558.31;4959101;28;97473;-49
2022/08/13 10:25:01;;;;;;;1.97;1.87;;;;;;;33.23;30.33;101557.34;4959792;28;98641;-49
2022/08/13 10:27:26;;;;;;;2.40;2.30;;;;;;;33.28;30.54;101553.34;4960161;28;97266;-49
2022/08/13 10:29:52;;;;;;;2.40;2.30;;;;;;;33.24;30.01;101553.13;4959067;28;97097;-49
2022/08/13 10:32:17;;;;;;;2.03;1.93;;;;;;;33.21;30.08;101546.56;4961015;28;97319;-49
2022/08/13 10:34:44;;;;;;;2.37;2.27;;;;;;;33.30;30.09;101538.44;4960991;28;97485;-49
2022/08/13 10:37:09;;;;;;;1.97;1.87;;;;;;;33.31;30.18;101539.94;4959632;28;96780;-49
2022/08/13 10:39:34;;;;;;;2.40;2.30;;;;;;;33.28;29.92;101538.31;4957803;28;97116;-49
2022/08/13 10:42:00;;;;;;;2.43;2.23;;;;;;;33.39;30.02;101540.34;4959718;28;99000;-49
2022/08/13 10:44:25;;;;;;;2.60;2.50;;;;;;;33.35;29.91;101543.72;4959316;28;97025;-49
2022/08/13 10:46:51;;;;;;;2.37;2.13;;;;;;;33.25;29.93;101540.31;4960701;28;98126;-49
2022/08/13 10:49:17;;;;;;;2.50;2.30;;;;;;;33.13;29.90;101543.31;4958779;28;96815;-50
2022/08/13 10:51:42;;;;;;;2.80;2.60;;;;;;;33.10;29.94;101538.84;4959487;28;96781;-49
2022/08/13 10:54:07;;;;;;;2.50;2.30;;;;;;;32.95;29.89;101532.97;4959770;28;97106;-49
2022/08/13 10:56:33;;;;;;;2.40;2.30;;;;;;;32.93;30.07;101527.91;4959059;28;97167;-49
2022/08/13 10:59:01;;;;;;;2.57;2.40;;;;;;;33.10;29.96;101526.69;4958728;28;97300;-49
2022/08/13 11:01:28;;;;;;;3.10;2.80;;;;;;;33.09;29.99;101519.53;4959994;28;100381;-50
2022/08/13 11:03:57;;;;;;;5.50;2.33;;;;;;;33.15;29.96;101526.28;4951459;28;97086;-48
2022/08/13 11:06:27;;;;;;;2.30;2.20;;;;;;;33.32;29.61;101519.31;4955420;28;102855;-49
2022/08/13 11:08:54;;;;;;;2.30;2.20;;;;;;;33.46;29.43;101502.94;4955477;28;96417;-49
2022/08/13 11:11:21;;;;;;;2.60;2.50;;;;;;;33.62;29.46;101514.44;4955328;28;97186;-48
2022/08/13 11:13:46;;;;;;;2.50;2.40;;;;;;;33.59;29.18;101522.19;4959411;28;96905;-49
2022/08/13 11:19:13;;;;;;;2.47;2.27;;;;;;;33.59;29.22;101499.34;4954474;28;98044;-49
2022/08/13 11:21:38;;;;;;;2.90;2.70;;;;;;;33.60;29.01;101505.78;4953251;28;97408;-49
2022/08/13 11:24:03;;;;;;;2.37;2.17;;;;;;;33.72;29.01;101500.69;4956840;28;96943;-49
2022/08/13 11:26:29;;;;;;;2.53;2.43;;;;;;;33.88;29.06;101502.22;4957391;28;97275;-49
2022/08/13 11:28:54;;;;;;;2.80;2.60;;;;;;;33.93;28.90;101503.91;4959646;28;97925;-49
2022/08/13 11:31:20;;;;;;;2.23;2.13;;;;;;;33.98;28.61;101499.16;4958714;28;97349;-50
2022/08/13 11:33:46;;;;;;;2.73;2.63;;;;;;;33.93;28.47;101486.78;4956938;28;101133;-49
2022/08/13 11:36:11;;;;;;;2.97;2.27;;;;;;;34.06;28.79;101484.53;4954851;28;98503;-49
2022/08/13 11:38:36;;;;;;;2.83;2.50;;;;;;;34.23;28.63;101493.25;4959299;28;104587;-49
2022/08/13 11:41:02;;;;;;;2.70;2.20;;;;;;;34.36;28.22;101488.88;4956832;28;97359;-49
2022/08/13 11:43:30;;;;;;;2.87;2.67;;;;;;;34.31;28.20;101481.47;4958859;28;97461;-49
2022/08/13 11:45:56;;;;;;;9.80;2.60;;;;;;;34.39;28.16;101487.56;4956817;28;97060;-48
2022/08/13 11:48:22;;;;;;;2.53;2.43;;;;;;;34.63;28.20;101489.47;4959388;28;98004;-48